Arlington, Texas
Current Conditions -  °F | °C
As of 3:15 AM on Thursday 23 Oct 2014 (Local Time) from KGPM Reporting Station
Scattered Clouds Scattered Clouds  
Wind Chill: 67°   Ceiling: Unl
Heat Index: 67°   Visibility: 10mi
Dew Point: 55°   Wind: 8mph
Humidity: 64%   Direction: 120°ESE
Pressure: 30.13"   Gusts: NA
Location:  32.74°N, 97.11°W
Report Text: KGPM 230815Z AUTO 12007KT 10SM SCT095 20/13 A3013 RMK AO2 T01970126
Loading
Personal Weather Stations






























Interactive Weather Map New forecast layout! Learn more

10-Day Weather Forecast

Advertisements
Track Severe Weather on mobile